Time;durP1;ratioP1;P1;durP2;ratioP2;P2;SDS_P1;SDS_P2;PMS_P1;PMS_P2;Temp;Humidity;BMP_temperature;BMP_pressure;BME280_temperature;BME280_humidity;BME280_pressure;Samples;Min_cycle;Max_cycle;Signal;HPM_P1;HPM_P2
2023/09/24 00:01:03;;;;;;;5.03;2.60;;;17.80;99.90;;;;;;4997795;28;20271;-80
2023/09/24 00:03:28;;;;;;;4.70;2.85;;;17.50;99.90;;;;;;4997736;28;20069;-79
2023/09/24 00:05:54;;;;;;;3.65;2.00;;;17.60;99.90;;;;;;4998165;28;20050;-80
2023/09/24 00:08:20;;;;;;;9.70;3.75;;;17.60;99.90;;;;;;4980908;28;20497;-79
2023/09/24 00:10:52;;;;;;;5.10;2.30;;;17.70;99.90;;;;;;4982396;28;20046;-79
2023/09/24 00:13:21;;;;;;;7.00;2.47;;;17.60;99.90;;;;;;4998740;28;20107;-80
2023/09/24 00:15:49;;;;;;;6.25;2.40;;;17.70;99.90;;;;;;4982969;28;20113;-80
2023/09/24 00:18:18;;;;;;;4.45;2.03;;;17.70;99.90;;;;;;4982608;28;20558;-79
2023/09/24 00:20:44;;;;;;;4.22;2.20;;;17.70;99.90;;;;;;4981662;28;20033;-79
2023/09/24 00:23:10;;;;;;;5.15;2.35;;;;;;;;;;4998829;28;20417;-79
2023/09/24 00:25:37;;;;;;;6.78;1.58;;;17.40;99.90;;;;;;4981991;28;20041;-79
2023/09/24 00:28:03;;;;;;;3.70;2.17;;;17.50;99.90;;;;;;4998531;28;20132;-79
2023/09/24 00:30:29;;;;;;;8.63;3.45;;;17.50;99.90;;;;;;4997818;28;20050;-80
2023/09/24 00:32:55;;;;;;;4.72;2.42;;;17.30;99.90;;;;;;4998506;28;20048;-80
2023/09/24 00:35:22;;;;;;;4.43;1.85;;;;;;;;;;4981644;28;20041;-80
2023/09/24 00:37:48;;;;;;;5.85;2.03;;;17.50;99.90;;;;;;4997669;28;20099;-79
2023/09/24 00:40:13;;;;;;;5.07;1.70;;;17.50;99.90;;;;;;4980868;28;20042;-79
2023/09/24 00:42:39;;;;;;;6.32;2.10;;;17.40;99.90;;;;;;4981905;28;20042;-80
2023/09/24 00:45:11;;;;;;;4.72;1.85;;;17.00;99.90;;;;;;4997995;28;20490;-79
2023/09/24 00:47:39;;;;;;;6.15;2.10;;;17.20;99.90;;;;;;4997417;28;20052;-79
2023/09/24 00:50:10;;;;;;;4.65;1.77;;;17.10;99.90;;;;;;4997539;28;20514;-79
2023/09/24 00:52:36;;;;;;;5.03;1.90;;;17.00;99.90;;;;;;4997501;28;20125;-79
2023/09/24 00:55:10;;;;;;;4.53;1.95;;;17.40;99.90;;;;;;4997028;28;20042;-79
2023/09/24 00:57:36;;;;;;;7.35;1.70;;;;;;;;;;4997495;28;20045;-79
2023/09/24 01:00:09;;;;;;;6.70;2.28;;;17.80;99.90;;;;;;4998450;28;20060;-79
2023/09/24 01:02:36;;;;;;;4.10;2.10;;;17.20;99.90;;;;;;5000195;28;20050;-79
2023/09/24 01:05:02;;;;;;;5.13;2.00;;;;;;;;;;5000160;28;20119;-80
2023/09/24 01:07:31;;;;;;;4.25;1.63;;;17.10;99.90;;;;;;4999763;28;20124;-79
2023/09/24 01:09:57;;;;;;;5.45;1.98;;;17.20;99.90;;;;;;4999357;28;20045;-79
2023/09/24 01:12:23;;;;;;;4.28;1.90;;;17.30;99.90;;;;;;4999375;28;20564;-79
2023/09/24 01:14:49;;;;;;;3.97;1.98;;;17.40;99.90;;;;;;4999279;28;20080;-79
2023/09/24 01:17:18;;;;;;;5.65;2.05;;;17.20;99.90;;;;;;4998847;28;20362;-79
2023/09/24 01:19:44;;;;;;;8.05;2.25;;;17.30;99.90;;;;;;4982181;28;20034;-79
2023/09/24 01:22:09;;;;;;;3.85;1.63;;;17.10;99.90;;;;;;4998717;28;20042;-79
2023/09/24 01:24:35;;;;;;;12.27;2.35;;;17.20;99.90;;;;;;4997913;28;20045;-79
2023/09/24 01:27:01;;;;;;;3.50;1.80;;;;;;;;;;4999302;28;20042;-79
2023/09/24 01:29:26;;;;;;;3.05;1.58;;;16.80;99.90;;;;;;4998088;28;20061;-79
2023/09/24 01:31:52;;;;;;;3.88;1.75;;;16.80;99.90;;;;;;4998138;28;20038;-79
2023/09/24 01:34:19;;;;;;;7.78;3.33;;;16.80;99.90;;;;;;4999025;28;20045;-79
2023/09/24 01:36:45;;;;;;;2.95;1.60;;;16.90;99.90;;;;;;4998854;28;20493;-79
2023/09/24 01:39:26;;;;;;;4.53;2.00;;;16.90;99.90;;;;;;4998229;28;20064;-79
2023/09/24 01:41:52;;;;;;;6.30;2.42;;;;;;;;;;4998021;28;20037;-79
2023/09/24 01:44:21;;;;;;;6.35;2.15;;;16.80;99.90;;;;;;4998251;28;20064;-79
2023/09/24 01:46:48;;;;;;;7.55;2.30;;;17.00;99.90;;;;;;5015784;28;20409;-79
2023/09/24 01:49:16;;;;;;;4.53;1.83;;;17.00;99.90;;;;;;4998125;28;20042;-80
2023/09/24 01:51:44;;;;;;;3.65;1.80;;;;;;;;;;4998283;28;20038;-79
2023/09/24 01:54:10;;;;;;;3.53;1.90;;;;;;;;;;4981594;28;20536;-79
2023/09/24 01:56:36;;;;;;;6.10;2.10;;;;;;;;;;4980660;28;20053;-79
2023/09/24 01:59:04;;;;;;;4.43;2.00;;;;;;;;;;4997493;28;20049;-79
2023/09/24 02:01:29;;;;;;;3.22;2.20;;;17.20;99.90;;;;;;4997920;28;20074;-79
2023/09/24 02:03:59;;;;;;;3.83;2.05;;;17.10;99.90;;;;;;4997836;28;20092;-79
2023/09/24 02:06:25;;;;;;;7.55;2.30;;;;;;;;;;4997241;28;20048;-79
2023/09/24 02:08:51;;;;;;;6.55;2.28;;;;;;;;;;4996384;28;20092;-79
2023/09/24 02:11:18;;;;;;;4.90;2.22;;;17.10;99.90;;;;;;4996672;28;20129;-79
2023/09/24 02:13:43;;;;;;;6.60;2.25;;;16.90;99.90;;;;;;4981098;28;20084;-79
2023/09/24 02:16:11;;;;;;;4.38;2.55;;;;;;;;;;4997039;28;20168;-79
2023/09/24 02:18:36;;;;;;;5.65;2.67;;;17.40;99.90;;;;;;4980842;28;20038;-79
2023/09/24 02:21:06;;;;;;;5.43;2.35;;;17.30;99.90;;;;;;4997019;28;20088;-79
2023/09/24 02:23:33;;;;;;;4.53;2.22;;;16.90;99.90;;;;;;4997030;28;20099;-79
2023/09/24 02:26:00;;;;;;;6.82;3.03;;;17.20;99.90;;;;;;4980242;28;20046;-79
2023/09/24 02:28:26;;;;;;;3.25;2.10;;;;;;;;;;4996815;28;20095;-79
2023/09/24 02:30:53;;;;;;;5.15;3.22;;;17.40;99.90;;;;;;4996744;28;20140;-79
2023/09/24 02:33:19;;;;;;;12.27;2.72;;;;;;;;;;4996894;28;20045;-79
2023/09/24 02:35:44;;;;;;;6.15;2.60;;;17.30;99.90;;;;;;4998207;28;20049;-79
2023/09/24 02:38:10;;;;;;;4.28;2.90;;;;;;;;;;4984389;28;20041;-79
2023/09/24 02:40:38;;;;;;;6.78;3.42;;;;;;;;;;5001169;28;20120;-79
2023/09/24 02:43:04;;;;;;;5.80;2.72;;;17.40;99.90;;;;;;5001027;28;20401;-78
2023/09/24 02:45:30;;;;;;;5.20;2.55;;;17.20;99.90;;;;;;5001267;28;20041;-80
2023/09/24 02:47:56;;;;;;;2.70;2.10;;;17.30;99.90;;;;;;5001174;28;20052;-79
2023/09/24 02:50:24;;;;;;;4.38;3.20;;;17.30;99.90;;;;;;4984109;28;20046;-79
2023/09/24 02:52:58;;;;;;;6.10;3.10;;;17.30;99.90;;;;;;5001145;28;20137;-80
2023/09/24 02:55:26;;;;;;;8.02;3.30;;;17.00;99.90;;;;;;5000298;28;20394;-79
2023/09/24 02:57:52;;;;;;;6.60;2.97;;;17.20;99.90;;;;;;5000578;28;20129;-79
2023/09/24 03:00:21;;;;;;;6.35;3.30;;;17.20;99.90;;;;;;4984536;28;20077;-79
2023/09/24 03:02:47;;;;;;;4.63;2.58;;;17.20;99.90;;;;;;5000935;28;20042;-79
2023/09/24 03:05:24;;;;;;;6.07;3.88;;;17.00;99.90;;;;;;5001434;28;20089;-79
2023/09/24 03:07:50;;;;;;;4.20;2.92;;;17.20;99.90;;;;;;5001462;28;20049;-79
2023/09/24 03:10:16;;;;;;;8.18;3.17;;;17.50;99.90;;;;;;5000683;28;20046;-79
2023/09/24 03:12:42;;;;;;;4.55;2.85;;;;;;;;;;5000378;28;20104;-79
2023/09/24 03:15:10;;;;;;;9.10;3.47;;;17.30;99.90;;;;;;4983571;28;20045;-79
2023/09/24 03:17:36;;;;;;;4.35;3.10;;;17.30;99.90;;;;;;5000322;28;20082;-79
2023/09/24 03:20:14;;;;;;;5.15;3.25;;;17.20;99.90;;;;;;5015898;28;20042;-79
2023/09/24 03:22:43;;;;;;;5.90;3.60;;;17.30;99.90;;;;;;5000113;28;20042;-79
2023/09/24 03:25:10;;;;;;;7.18;3.20;;;17.20;99.90;;;;;;5000534;28;20045;-79
2023/09/24 03:27:38;;;;;;;7.50;3.30;;;;;;;;;;4985220;28;20038;-79
2023/09/24 03:30:06;;;;;;;9.38;4.63;;;17.00;99.90;;;;;;4984244;28;20046;-79
2023/09/24 03:32:31;;;;;;;4.55;3.47;;;17.00;99.90;;;;;;4984233;28;20042;-79
2023/09/24 03:34:57;;;;;;;7.40;3.97;;;16.90;99.90;;;;;;5001097;28;20536;-79
2023/09/24 03:37:23;;;;;;;8.80;4.35;;;;;;;;;;5000417;28;20038;-79
2023/09/24 03:39:49;;;;;;;7.13;3.70;;;;;;;;;;4984071;28;20046;-79
2023/09/24 03:42:15;;;;;;;6.20;3.58;;;;;;;;;;5000398;28;20106;-79
2023/09/24 03:44:41;;;;;;;5.72;3.67;;;;;;;;;;5000963;28;20413;-80
2023/09/24 03:47:06;;;;;;;7.80;4.25;;;16.80;99.90;;;;;;4999313;28;20377;-79
2023/09/24 03:49:32;;;;;;;6.68;4.05;;;16.70;99.90;;;;;;5000531;28;20421;-79
2023/09/24 03:51:58;;;;;;;4.90;3.78;;;16.70;99.90;;;;;;4984779;28;20041;-79
2023/09/24 03:54:24;;;;;;;9.77;4.30;;;;;;;;;;4984881;28;20455;-78
2023/09/24 03:56:50;;;;;;;12.02;4.00;;;;;;;;;;5000301;28;20161;-79
2023/09/24 03:59:16;;;;;;;9.43;5.03;;;;;;;;;;5016483;28;20072;-79
2023/09/24 04:01:41;;;;;;;6.10;4.07;;;16.50;99.90;;;;;;5012051;28;20347;-79
2023/09/24 04:04:08;;;;;;;6.45;4.68;;;16.70;99.90;;;;;;5013343;28;20105;-79
2023/09/24 04:06:34;;;;;;;9.73;4.68;;;16.80;99.90;;;;;;5013806;28;20050;-79
2023/09/24 04:09:00;;;;;;;11.55;4.70;;;17.00;99.90;;;;;;4996369;28;20129;-79
2023/09/24 04:11:27;;;;;;;8.00;4.40;;;16.90;99.90;;;;;;4996798;28;20038;-79
2023/09/24 04:13:53;;;;;;;9.90;4.68;;;16.80;99.90;;;;;;5009615;28;20081;-79
2023/09/24 04:16:21;;;;;;;6.03;4.53;;;;;;;;;;5006700;28;20041;-79
2023/09/24 04:18:47;;;;;;;8.88;5.70;;;16.90;99.90;;;;;;5004699;28;20041;-79
2023/09/24 04:21:17;;;;;;;8.05;4.80;;;16.60;99.90;;;;;;5009954;28;20045;-79
2023/09/24 04:23:43;;;;;;;9.27;4.35;;;16.90;99.90;;;;;;4996458;28;20049;-79
2023/09/24 04:26:22;;;;;;;9.15;5.30;;;16.70;99.90;;;;;;5013674;28;20054;-80
2023/09/24 04:28:53;;;;;;;8.52;4.78;;;16.80;99.90;;;;;;5012522;28;20069;-79
2023/09/24 04:31:19;;;;;;;5.70;4.78;;;;;;;;;;5009546;28;20099;-79
2023/09/24 04:33:48;;;;;;;8.77;4.88;;;;;;;;;;4999012;28;20037;-79
2023/09/24 04:36:14;;;;;;;8.38;4.97;;;17.10;99.90;;;;;;4998292;28;20169;-79
2023/09/24 04:38:41;;;;;;;9.52;4.90;;;16.80;99.90;;;;;;4981673;28;20045;-79
2023/09/24 04:41:07;;;;;;;10.52;4.63;;;17.20;99.90;;;;;;4998357;28;20413;-79
2023/09/24 04:43:35;;;;;;;8.88;5.05;;;16.90;99.90;;;;;;4997747;28;20038;-79
2023/09/24 04:46:04;;;;;;;7.85;5.03;;;16.70;99.90;;;;;;4998336;28;20092;-79
2023/09/24 04:48:32;;;;;;;7.22;4.40;;;16.80;99.90;;;;;;4997785;28;20041;-79
2023/09/24 04:50:58;;;;;;;11.32;5.20;;;16.80;99.90;;;;;;4997733;28;20056;-79
2023/09/24 04:53:24;;;;;;;12.40;5.82;;;17.00;99.90;;;;;;4997593;28;20437;-79
2023/09/24 04:55:49;;;;;;;8.60;5.05;;;16.80;99.90;;;;;;4980995;28;20045;-79
2023/09/24 04:58:15;;;;;;;9.15;5.07;;;17.00;99.90;;;;;;4982229;28;20454;-79
2023/09/24 05:00:41;;;;;;;10.73;5.22;;;;;;;;;;4997679;28;20072;-79
2023/09/24 05:03:07;;;;;;;12.55;5.20;;;16.90;99.90;;;;;;4981073;28;20046;-79
2023/09/24 05:05:33;;;;;;;8.15;5.00;;;16.60;99.90;;;;;;4981156;28;20034;-79
2023/09/24 05:07:59;;;;;;;10.27;4.53;;;;;;;;;;4997515;28;20386;-79
2023/09/24 05:10:25;;;;;;;9.05;5.07;;;;;;;;;;4980934;28;20418;-79
2023/09/24 05:12:51;;;;;;;9.55;4.93;;;;;;;;;;4997645;28;20046;-79
2023/09/24 05:15:16;;;;;;;10.65;5.10;;;16.80;99.90;;;;;;4981477;28;20045;-79
2023/09/24 05:17:42;;;;;;;9.18;4.72;;;16.50;99.90;;;;;;4997431;28;20233;-80
2023/09/24 05:20:09;;;;;;;12.35;5.57;;;16.50;99.90;;;;;;4996926;28;20038;-79
2023/09/24 05:22:34;;;;;;;7.47;5.07;;;16.30;99.90;;;;;;4998958;28;20509;-79
2023/09/24 05:25:00;;;;;;;9.68;5.88;;;16.30;99.90;;;;;;4983265;28;20082;-79
2023/09/24 05:27:29;;;;;;;9.23;5.70;;;16.20;99.90;;;;;;4999814;28;20061;-79
2023/09/24 05:29:54;;;;;;;9.20;5.45;;;16.30;99.90;;;;;;4998189;28;20049;-79
2023/09/24 05:32:21;;;;;;;9.48;5.30;;;;;;;;;;4999347;28;20046;-79
2023/09/24 05:34:52;;;;;;;11.45;5.40;;;16.20;99.90;;;;;;4999791;28;20413;-79
2023/09/24 05:37:17;;;;;;;8.70;4.90;;;16.20;99.90;;;;;;4999256;28;20049;-79
2023/09/24 05:39:43;;;;;;;9.50;5.38;;;16.50;99.90;;;;;;5000136;28;20042;-79
2023/09/24 05:42:09;;;;;;;10.65;5.03;;;16.50;99.90;;;;;;4997487;28;20034;-79
2023/09/24 05:44:35;;;;;;;11.57;5.68;;;;;;;;;;4984901;28;20045;-79
2023/09/24 05:47:01;;;;;;;9.55;5.57;;;;;;;;;;5004421;28;20053;-79
2023/09/24 05:49:27;;;;;;;7.95;4.63;;;16.50;99.90;;;;;;5001869;28;20049;-79
2023/09/24 05:51:53;;;;;;;9.63;4.88;;;;;;;;;;4985697;28;20034;-79
2023/09/24 05:54:18;;;;;;;9.90;5.45;;;16.50;99.90;;;;;;4999532;28;20103;-78
2023/09/24 05:56:44;;;;;;;10.60;4.80;;;16.40;99.90;;;;;;4998371;28;20099;-80
2023/09/24 05:59:09;;;;;;;9.45;5.20;;;16.50;99.90;;;;;;4979804;28;20421;-79
2023/09/24 06:01:35;;;;;;;8.90;5.13;;;;;;;;;;4995704;28;20042;-79
2023/09/24 06:04:01;;;;;;;6.85;5.03;;;;;;;;;;4979614;28;20132;-79
2023/09/24 06:06:27;;;;;;;10.05;5.05;;;;;;;;;;4995014;28;20127;-79
2023/09/24 06:08:53;;;;;;;11.35;5.72;;;;;;;;;;4995253;28;20061;-78
2023/09/24 06:11:19;;;;;;;9.75;5.00;;;16.20;99.90;;;;;;4997335;28;20076;-79
2023/09/24 06:13:45;;;;;;;8.45;4.90;;;;;;;;;;4982431;28;20069;-79
2023/09/24 06:16:11;;;;;;;14.75;6.50;;;16.50;99.90;;;;;;4982460;28;20038;-79
2023/09/24 06:18:36;;;;;;;12.00;5.63;;;16.40;99.90;;;;;;4998428;28;20034;-79
2023/09/24 06:21:04;;;;;;;9.60;5.32;;;;;;;;;;4998065;28;20088;-79
2023/09/24 06:23:30;;;;;;;11.25;5.68;;;16.40;99.90;;;;;;4998548;28;20092;-79
2023/09/24 06:25:56;;;;;;;12.77;5.90;;;16.60;99.90;;;;;;4998086;28;20073;-79
2023/09/24 06:28:23;;;;;;;8.95;5.20;;;16.70;99.90;;;;;;4997946;28;20060;-79
2023/09/24 06:30:57;;;;;;;10.20;5.20;;;16.80;99.90;;;;;;4981434;28;20038;-79
2023/09/24 06:33:23;;;;;;;9.13;4.82;;;16.60;99.90;;;;;;5013896;28;20041;-79
2023/09/24 06:35:49;;;;;;;14.73;5.72;;;;;;;;;;4997546;28;20406;-79
2023/09/24 06:38:14;;;;;;;10.02;5.10;;;16.70;99.90;;;;;;4981527;28;20081;-79
2023/09/24 06:40:40;;;;;;;10.82;5.47;;;16.80;99.90;;;;;;4960871;28;1075536;-79
2023/09/24 06:43:05;;;;;;;10.05;5.45;;;16.90;99.90;;;;;;5017346;28;20072;-79
2023/09/24 06:45:31;;;;;;;13.00;5.53;;;;;;;;;;5016707;28;20701;-78
2023/09/24 06:47:59;;;;;;;13.88;6.20;;;;;;;;;;4999315;28;20505;-79
2023/09/24 06:50:25;;;;;;;12.23;5.53;;;17.10;99.90;;;;;;4998096;28;20123;-79
2023/09/24 06:52:52;;;;;;;11.02;5.70;;;;;;;;;;4998356;28;20116;-79
2023/09/24 06:55:18;;;;;;;10.65;5.20;;;;;;;;;;4998595;28;20092;-78
2023/09/24 06:57:44;;;;;;;11.90;5.18;;;;;;;;;;4998758;28;20065;-79
2023/09/24 07:00:10;;;;;;;10.80;6.05;;;17.20;99.90;;;;;;4998600;28;20531;-79
2023/09/24 07:02:36;;;;;;;10.77;5.38;;;;;;;;;;4998915;28;20493;-79
2023/09/24 07:05:04;;;;;;;10.82;6.20;;;;;;;;;;4982424;28;20042;-79
2023/09/24 07:07:30;;;;;;;9.45;4.82;;;;;;;;;;4982774;28;20460;-79
2023/09/24 07:09:59;;;;;;;8.82;5.32;;;;;;;;;;4982270;28;20046;-79
2023/09/24 07:12:25;;;;;;;7.88;4.85;;;17.20;99.90;;;;;;4998220;28;20050;-79
2023/09/24 07:14:51;;;;;;;10.95;5.80;;;;;;;;;;4983151;28;20421;-79
2023/09/24 07:17:17;;;;;;;11.20;5.70;;;;;;;;;;4984061;28;20038;-79
2023/09/24 07:19:43;;;;;;;9.90;5.57;;;;;;;;;;4999112;28;20045;-79
2023/09/24 07:22:09;;;;;;;11.13;5.40;;;;;;;;;;4982219;28;20127;-79
2023/09/24 07:24:35;;;;;;;6.95;5.00;;;;;;;;;;4999465;28;20046;-78
2023/09/24 07:27:03;;;;;;;8.65;5.22;;;17.70;99.90;;;;;;4999457;28;20162;-79
2023/09/24 07:29:31;;;;;;;12.73;5.55;;;17.90;99.90;;;;;;4983097;28;20129;-79
2023/09/24 07:31:57;;;;;;;13.00;5.07;;;;;;;;;;4999063;28;20045;-79
2023/09/24 07:34:24;;;;;;;13.18;6.68;;;17.80;99.90;;;;;;4998654;28;20046;-79
2023/09/24 07:36:50;;;;;;;9.23;4.97;;;;;;;;;;4982232;28;20532;-79
2023/09/24 07:39:16;;;;;;;9.82;5.40;;;;;;;;;;4982702;28;20030;-79
2023/09/24 07:41:43;;;;;;;9.68;5.18;;;18.00;99.90;;;;;;4983152;28;20101;-79
2023/09/24 07:44:08;;;;;;;9.10;4.53;;;18.20;99.90;;;;;;4998722;28;20073;-79
2023/09/24 07:46:34;;;;;;;9.40;5.28;;;;;;;;;;4999141;28;20046;-79
2023/09/24 07:49:05;;;;;;;9.95;5.40;;;;;;;;;;4999236;28;20110;-80
2023/09/24 07:51:31;;;;;;;8.63;4.68;;;18.40;99.90;;;;;;4998453;28;20045;-79
2023/09/24 07:53:56;;;;;;;7.63;4.80;;;18.40;99.90;;;;;;4982668;28;20064;-79
2023/09/24 07:56:22;;;;;;;12.30;5.03;;;;;;;;;;5015680;28;20497;-80
2023/09/24 07:58:48;;;;;;;8.82;4.80;;;;;;;;;;4998398;28;20034;-79
2023/09/24 08:01:15;;;;;;;10.48;4.78;;;;;;;;;;4982101;28;20042;-79
2023/09/24 08:03:44;;;;;;;11.82;4.97;;;18.30;99.90;;;;;;4982279;28;20073;-79
2023/09/24 08:06:10;;;;;;;10.50;4.28;;;18.80;99.90;;;;;;4998418;28;20052;-79
2023/09/24 08:08:36;;;;;;;5.65;4.38;;;18.80;99.90;;;;;;4999047;28;20128;-79
2023/09/24 08:11:02;;;;;;;7.90;4.43;;;18.60;99.90;;;;;;5015363;28;20070;-79
2023/09/24 08:13:28;;;;;;;9.32;3.92;;;18.90;99.90;;;;;;5014616;28;20042;-79
2023/09/24 08:15:57;;;;;;;10.73;5.07;;;18.80;99.90;;;;;;4982733;28;20038;-79
2023/09/24 08:18:24;;;;;;;11.73;4.47;;;18.80;99.90;;;;;;4998690;28;20060;-79
2023/09/24 08:20:50;;;;;;;7.05;3.70;;;18.90;99.90;;;;;;4999488;28;20046;-81
2023/09/24 08:23:18;;;;;;;10.00;4.30;;;19.00;99.90;;;;;;4982833;28;20099;-80
2023/09/24 08:25:43;;;;;;;7.20;4.10;;;19.20;99.90;;;;;;4982892;28;20045;-79
2023/09/24 08:28:10;;;;;;;6.68;4.35;;;19.30;99.90;;;;;;4998611;28;20044;-79
2023/09/24 08:30:36;;;;;;;9.38;4.47;;;19.50;99.90;;;;;;4999077;28;20049;-80
2023/09/24 08:33:01;;;;;;;9.00;4.80;;;19.50;99.90;;;;;;5015829;28;20046;-79
2023/09/24 08:35:27;;;;;;;7.80;3.28;;;19.60;99.90;;;;;;4999332;28;20029;-79
2023/09/24 08:37:53;;;;;;;6.60;3.90;;;19.70;99.90;;;;;;4982839;28;20464;-79
2023/09/24 08:40:19;;;;;;;7.25;3.88;;;19.70;99.90;;;;;;4998820;28;20037;-79
2023/09/24 08:42:47;;;;;;;10.45;3.75;;;19.80;99.90;;;;;;5009412;28;20038;-78
2023/09/24 08:45:20;;;;;;;7.70;3.45;;;20.00;99.90;;;;;;5000060;28;20038;-79
2023/09/24 08:47:47;;;;;;;6.13;3.38;;;19.80;99.90;;;;;;5001577;28;20393;-79
2023/09/24 08:50:14;;;;;;;9.13;3.25;;;20.00;99.90;;;;;;5004421;28;20037;-79
2023/09/24 08:52:42;;;;;;;7.88;3.22;;;20.00;99.90;;;;;;5000933;28;20316;-79
2023/09/24 08:55:09;;;;;;;9.25;2.90;;;20.10;99.90;;;;;;5016747;28;20073;-79
2023/09/24 08:57:39;;;;;;;7.10;3.30;;;20.00;99.90;;;;;;4999752;28;20123;-79
2023/09/24 09:00:10;;;;;;;5.00;3.33;;;20.30;99.90;;;;;;4983249;28;20030;-80
2023/09/24 09:02:37;;;;;;;8.75;3.55;;;20.50;99.90;;;;;;4999969;28;20038;-79
2023/09/24 09:05:11;;;;;;;9.75;3.95;;;20.50;99.90;;;;;;5016112;28;20049;-80
2023/09/24 09:07:37;;;;;;;7.07;3.03;;;20.50;99.90;;;;;;4999649;28;20080;-79
2023/09/24 09:10:04;;;;;;;6.82;2.75;;;20.50;99.90;;;;;;5015976;28;20525;-79
2023/09/24 09:12:30;;;;;;;7.45;2.45;;;20.70;99.90;;;;;;4999345;28;20326;-79
2023/09/24 09:14:56;;;;;;;7.47;3.22;;;20.70;99.90;;;;;;4999367;28;20038;-79
2023/09/24 09:17:22;;;;;;;9.25;3.40;;;20.70;99.90;;;;;;4982703;28;20034;-79
2023/09/24 09:19:49;;;;;;;5.07;2.50;;;20.80;99.90;;;;;;4982763;28;20038;-80
2023/09/24 09:22:28;;;;;;;6.05;2.63;;;20.70;99.90;;;;;;5000710;28;20069;-80
2023/09/24 09:25:05;;;;;;;5.68;2.30;;;20.80;99.90;;;;;;5003002;28;20068;-80
2023/09/24 09:27:39;;;;;;;7.18;2.85;;;20.80;99.90;;;;;;4987912;28;20129;-80
2023/09/24 09:30:19;;;;;;;7.03;2.50;;;21.10;99.90;;;;;;5001913;28;20045;-80
2023/09/24 09:32:46;;;;;;;6.90;2.60;;;20.90;99.90;;;;;;5000582;28;20569;-80
2023/09/24 09:35:14;;;;;;;5.53;2.40;;;21.00;99.90;;;;;;4984319;28;20382;-80
2023/09/24 09:37:41;;;;;;;5.72;2.50;;;21.00;99.90;;;;;;4982903;28;20061;-80
2023/09/24 09:40:08;;;;;;;10.45;3.05;;;21.30;99.90;;;;;;4998258;28;20095;-80
2023/09/24 09:42:35;;;;;;;7.10;2.50;;;21.20;99.90;;;;;;4999480;28;20049;-80
2023/09/24 09:45:08;;;;;;;8.35;3.35;;;20.90;99.90;;;;;;5015989;28;20053;-80
2023/09/24 09:47:53;;;;;;;7.85;2.63;;;21.10;99.90;;;;;;4986740;28;20095;-79
2023/09/24 09:50:25;;;;;;;6.57;2.90;;;20.90;99.90;;;;;;5003385;28;20046;-80
2023/09/24 09:52:54;;;;;;;6.80;3.15;;;21.20;99.90;;;;;;5020944;28;20420;-80
2023/09/24 09:55:21;;;;;;;7.53;3.00;;;21.40;99.90;;;;;;4986322;28;20049;-80
2023/09/24 09:57:47;;;;;;;8.98;2.75;;;21.30;99.90;;;;;;5002818;28;20065;-80
2023/09/24 10:00:14;;;;;;;8.90;2.45;;;21.50;99.90;;;;;;5002603;28;20519;-80
2023/09/24 10:02:42;;;;;;;8.57;2.88;;;21.50;99.90;;;;;;5002898;28;20084;-80
2023/09/24 10:05:11;;;;;;;5.00;2.17;;;21.70;99.90;;;;;;5020790;28;20046;-80
2023/09/24 10:07:37;;;;;;;7.07;2.45;;;21.60;99.90;;;;;;4987553;28;20088;-79
2023/09/24 10:10:31;;;;;;;6.53;2.80;;;21.70;99.90;;;;;;5003114;28;20101;-80
2023/09/24 10:13:02;;;;;;;5.00;2.00;;;21.90;99.90;;;;;;4987157;28;20042;-79
2023/09/24 10:15:30;;;;;;;5.80;2.25;;;21.70;99.90;;;;;;5003883;28;20088;-80
2023/09/24 10:18:19;;;;;;;6.15;1.95;;;21.80;99.90;;;;;;5003260;28;20044;-80
2023/09/24 10:21:06;;;;;;;4.97;1.98;;;22.00;99.90;;;;;;5010315;28;20054;-80
2023/09/24 10:23:33;;;;;;;6.90;1.65;;;22.20;99.90;;;;;;5003695;28;20421;-80
2023/09/24 10:26:05;;;;;;;11.77;2.25;;;22.00;99.90;;;;;;5002931;28;20056;-80
2023/09/24 10:28:50;;;;;;;5.82;2.30;;;22.30;99.90;;;;;;5002840;28;20532;-80
2023/09/24 10:31:17;;;;;;;4.18;2.08;;;22.20;99.90;;;;;;4986544;28;20069;-80
2023/09/24 10:34:05;;;;;;;6.30;2.15;;;22.40;99.90;;;;;;5003365;28;20048;-80
2023/09/24 10:36:33;;;;;;;5.90;1.83;;;22.50;99.90;;;;;;5003187;28;20124;-80
2023/09/24 10:39:08;;;;;;;5.85;1.98;;;22.50;99.90;;;;;;4986091;28;20045;-80
2023/09/24 10:41:35;;;;;;;8.27;2.33;;;22.20;99.90;;;;;;5003415;28;20041;-80
2023/09/24 10:44:24;;;;;;;7.80;1.98;;;22.30;99.90;;;;;;5003452;28;20121;-80
2023/09/24 10:46:50;;;;;;;6.82;2.03;;;22.30;99.90;;;;;;5003486;28;20045;-80
2023/09/24 10:49:24;;;;;;;7.65;2.33;;;22.40;99.90;;;;;;5003828;28;20344;-80
2023/09/24 10:51:57;;;;;;;4.90;1.98;;;22.40;99.90;;;;;;4987127;28;20048;-80
2023/09/24 10:54:23;;;;;;;3.90;1.75;;;22.50;99.90;;;;;;5004312;28;20044;-79
2023/09/24 10:56:49;;;;;;;6.15;2.10;;;22.50;99.90;;;;;;5003108;28;20117;-79
2023/09/24 10:59:15;;;;;;;6.47;2.13;;;22.70;99.90;;;;;;5012979;28;20046;-79
2023/09/24 11:01:41;;;;;;;8.70;2.03;;;22.90;99.90;;;;;;5032399;28;20152;-80
2023/09/24 11:04:11;;;;;;;4.57;2.08;;;22.80;99.90;;;;;;5032737;28;20053;-79
2023/09/24 11:06:36;;;;;;;6.53;2.50;;;23.00;99.90;;;;;;5016419;28;20116;-80
2023/09/24 11:09:19;;;;;;;4.60;2.17;;;23.00;99.90;;;;;;5002938;28;20042;-80
2023/09/24 11:11:45;;;;;;;3.55;1.88;;;23.20;99.90;;;;;;5004267;28;20038;-79
2023/09/24 11:14:24;;;;;;;4.90;2.63;;;23.30;99.90;;;;;;4997734;28;20103;-80
2023/09/24 11:16:52;;;;;;;9.85;2.47;;;23.30;99.90;;;;;;5000125;28;20069;-80
2023/09/24 11:19:44;;;;;;;3.95;1.83;;;23.20;99.90;;;;;;5015906;28;20041;-80
2023/09/24 11:22:26;;;;;;;4.38;1.80;;;23.30;99.90;;;;;;5015539;28;20445;-80
2023/09/24 11:25:05;;;;;;;4.28;1.92;;;23.00;99.90;;;;;;4988098;28;20042;-80
2023/09/24 11:27:32;;;;;;;7.15;1.90;;;23.60;99.90;;;;;;5001193;28;20046;-80
2023/09/24 11:30:02;;;;;;;5.50;2.42;;;23.40;99.90;;;;;;5000775;28;20053;-80
2023/09/24 11:32:28;;;;;;;6.15;2.20;;;23.20;99.90;;;;;;4984738;28;20042;-80
2023/09/24 11:35:07;;;;;;;5.18;1.75;;;23.10;99.90;;;;;;4984633;28;20030;-80
2023/09/24 11:38:01;;;;;;;9.73;2.92;;;23.30;99.90;;;;;;5018401;28;20033;-80
2023/09/24 11:40:29;;;;;;;7.15;2.15;;;23.20;99.90;;;;;;4998082;28;20132;-80
2023/09/24 11:43:11;;;;;;;6.75;1.92;;;23.40;99.90;;;;;;5000980;28;20050;-80
2023/09/24 11:45:50;;;;;;;8.38;2.40;;;23.30;99.90;;;;;;5001326;28;20042;-80
2023/09/24 11:48:24;;;;;;;4.25;1.90;;;23.60;99.90;;;;;;5001219;28;20030;-80
2023/09/24 11:51:01;;;;;;;3.83;1.80;;;23.20;99.90;;;;;;5001848;28;20053;-80
2023/09/24 11:53:27;;;;;;;5.63;1.63;;;23.10;99.90;;;;;;5001613;28;20077;-80
2023/09/24 11:55:56;;;;;;;4.45;1.55;;;23.30;99.90;;;;;;5002383;28;20049;-80
2023/09/24 11:58:26;;;;;;;4.05;1.35;;;23.00;99.90;;;;;;4984073;28;20494;-80
2023/09/24 12:00:56;;;;;;;5.72;1.75;;;23.00;99.90;;;;;;5001624;28;20042;-80
2023/09/24 12:03:22;;;;;;;2.78;1.60;;;23.00;99.90;;;;;;5001342;28;20494;-80
2023/09/24 12:05:49;;;;;;;4.30;1.52;;;23.10;99.90;;;;;;5017124;28;20037;-80
2023/09/24 12:08:15;;;;;;;4.53;1.60;;;23.20;99.90;;;;;;4999891;28;20118;-79
2023/09/24 12:10:43;;;;;;;4.78;1.73;;;23.10;99.90;;;;;;5001338;28;20086;-80
2023/09/24 12:13:09;;;;;;;2.50;1.35;;;23.40;99.90;;;;;;5017621;28;20125;-80
2023/09/24 12:15:36;;;;;;;4.97;1.58;;;23.60;99.90;;;;;;5001003;28;20519;-80
2023/09/24 12:18:07;;;;;;;4.60;1.90;;;23.60;99.90;;;;;;5000870;28;20037;-80
2023/09/24 12:20:34;;;;;;;4.68;1.65;;;23.50;99.90;;;;;;4983740;28;20636;-79
2023/09/24 12:23:01;;;;;;;3.95;2.13;;;24.30;99.90;;;;;;5001098;28;20057;-80
2023/09/24 12:25:28;;;;;;;5.90;1.90;;;23.60;99.90;;;;;;4984542;28;20049;-80
2023/09/24 12:27:54;;;;;;;4.10;1.50;;;23.50;99.90;;;;;;5001227;28;20063;-80
2023/09/24 12:30:20;;;;;;;2.25;1.23;;;23.60;99.90;;;;;;5000684;28;20121;-80
2023/09/24 12:32:46;;;;;;;7.07;1.45;;;23.50;99.90;;;;;;5001094;28;20131;-80
2023/09/24 12:35:12;;;;;;;4.70;1.65;;;23.70;99.90;;;;;;5001194;28;20125;-80
2023/09/24 12:37:39;;;;;;;3.80;1.65;;;23.40;99.90;;;;;;4984855;28;20030;-80
2023/09/24 12:40:08;;;;;;;2.95;1.30;;;23.60;99.90;;;;;;5000193;28;20077;-80
2023/09/24 12:42:43;;;;;;;4.07;1.42;;;23.40;99.90;;;;;;5000892;28;20041;-80
2023/09/24 12:45:10;;;;;;;3.63;1.38;;;23.60;99.90;;;;;;5001186;28;20096;-80
2023/09/24 12:47:37;;;;;;;2.75;1.20;;;23.60;99.90;;;;;;5000053;28;20049;-80
2023/09/24 12:50:13;;;;;;;4.03;1.88;;;23.40;99.90;;;;;;5001313;28;20053;-79
2023/09/24 12:52:41;;;;;;;5.30;1.67;;;23.30;99.90;;;;;;4986527;28;20042;-80
2023/09/24 12:55:08;;;;;;;4.63;1.42;;;23.50;99.90;;;;;;5004199;28;20124;-79
2023/09/24 12:57:35;;;;;;;6.05;1.90;;;23.50;99.90;;;;;;5000785;28;20041;-80
2023/09/24 13:00:01;;;;;;;7.15;1.83;;;23.50;99.90;;;;;;5017328;28;20038;-80
2023/09/24 13:02:27;;;;;;;3.63;1.52;;;23.70;99.90;;;;;;4984397;28;20057;-80
2023/09/24 13:04:53;;;;;;;5.57;1.80;;;23.80;99.90;;;;;;5001437;28;20038;-80
2023/09/24 13:07:19;;;;;;;4.57;2.58;;;23.90;99.90;;;;;;4985158;28;20048;-80
2023/09/24 13:09:45;;;;;;;6.18;1.73;;;24.40;99.90;;;;;;4994658;28;20065;-80
2023/09/24 13:12:12;;;;;;;3.95;1.48;;;24.20;99.90;;;;;;5012752;28;20056;-80